Time;durP1;ratioP1;P1;durP2;ratioP2;P2;SDS_P1;SDS_P2;PMS_P1;PMS_P2;Temp;Humidity;BMP_temperature;BMP_pressure;BME280_temperature;BME280_humidity;BME280_pressure;Samples;Min_cycle;Max_cycle;Signal;HPM_P1;HPM_P2
2022/06/14 00:03:05;;;;;;;;;;;;;;;;;;5015643;28;19932;-26
2022/06/14 00:05:31;;;;;;;;;;;;;;;;;;5015259;28;20307;-26
2022/06/14 00:07:57;;;;;;;;;;;;;;;;;;5016116;28;19913;-26
2022/06/14 00:10:23;;;;;;;;;;;;;;;;;;5014880;28;19916;-26
2022/06/14 00:12:49;;;;;;;;;;;;;;;;;;5015962;28;20332;-26
2022/06/14 00:15:15;;;;;;;;;;;;;;;;;;5016237;28;19906;-26
2022/06/14 00:17:41;;;;;;;;;;;;;;;;;;5015732;28;20329;-25
2022/06/14 00:20:07;;;;;;;;;;;;;;;;;;5015750;28;19993;-25
2022/06/14 00:22:33;;;;;;;;;;;;;;;;;;5015453;28;20004;-25
2022/06/14 00:24:59;;;;;;;;;;;;;;;;;;5015858;28;19971;-26
2022/06/14 00:27:25;;;;;;;;;;;;;;;;;;5015583;28;19923;-26
2022/06/14 00:29:51;;;;;;;;;;;;;;;;;;5015479;28;19914;-26
2022/06/14 00:32:17;;;;;;;;;;;;;;;;;;5015714;28;19925;-26
2022/06/14 00:34:43;;;;;;;;;;;;;;;;;;5015706;28;19914;-26
2022/06/14 00:37:09;;;;;;;;;;;;;;;;;;5014544;28;19909;-26
2022/06/14 00:39:35;;;;;;;;;;;;;;;;;;5015405;28;19914;-25
2022/06/14 00:42:01;;;;;;;;;;;;;;;;;;5015204;28;20271;-25
2022/06/14 00:44:27;;;;;;;;;;;;;;;;;;5015650;28;19910;-26
2022/06/14 00:46:53;;;;;;;;;;;;;;;;;;5015314;28;20371;-26
2022/06/14 00:49:19;;;;;;;;;;;;;;;;;;5015276;28;19909;-26
2022/06/14 00:51:45;;;;;;;;;;;;;;;;;;5015511;28;19910;-26
2022/06/14 00:54:11;;;;;;;;;;;;;;;;;;5015503;28;19917;-25
2022/06/14 00:56:37;;;;;;;;;;;;;;;;;;5015468;28;19905;-26
2022/06/14 00:59:03;;;;;;;;;;;;;;;;;;5014257;28;20358;-25
2022/06/14 01:01:29;;;;;;;;;;;;;;;;;;5015093;28;19917;-26
2022/06/14 01:03:55;;;;;;;;;;;;;;;;;;5015069;28;20017;-26
2022/06/14 01:06:21;;;;;;;;;;;;;;;;;;5015683;28;20328;-26
2022/06/14 01:08:47;;;;;;;;;;;;;;;;;;5015621;28;19924;-25
2022/06/14 01:11:12;;;;;;;;;;;;;;;;;;5015157;28;19992;-26
2022/06/14 01:13:39;;;;;;;;;;;;;;;;;;5015569;28;19917;-25
2022/06/14 01:16:05;;;;;;;;;;;;;;;;;;5015035;28;19913;-26
2022/06/14 01:18:31;;;;;;;;;;;;;;;;;;5018913;28;20264;-26
2022/06/14 01:20:57;;;;;;;;;;;;;;;;;;5018912;28;19920;-25
2022/06/14 01:23:23;;;;;;;;;;;;;;;;;;5018806;28;19913;-26
2022/06/14 01:25:49;;;;;;;;;;;;;;;;;;5018916;28;20311;-25
2022/06/14 01:28:15;;;;;;;;;;;;;;;;;;5019092;28;19921;-25
2022/06/14 01:30:43;;;;;;;;;;;;;;;;;;5018790;28;19941;-25
2022/06/14 01:33:08;;;;;;;;;;;;;;;;;;5018907;28;19924;-25
2022/06/14 01:35:38;;;;;;;;;;;;;;;;;;5018930;28;19910;-27
2022/06/14 01:38:03;;;;;;;;;;;;;;;;;;5018572;28;20367;-26
2022/06/14 01:40:29;;;;;;;;;;;;;;;;;;5018871;28;19913;-26
2022/06/14 01:42:55;;;;;;;;;;;;;;;;;;5018321;28;19954;-26
2022/06/14 01:45:21;;;;;;;;;;;;;;;;;;5018527;28;20310;-26
2022/06/14 01:47:47;;;;;;;;;;;;;;;;;;5018435;28;19914;-26
2022/06/14 01:52:59;;;;;;;;;;;;;;;;;;5018673;28;20040;-26
2022/06/14 01:55:25;;;;;;;;;;;;;;;;;;5018618;28;20257;-26
2022/06/14 01:57:51;;;;;;;;;;;;;;;;;;5018186;28;19914;-26
2022/06/14 02:00:17;;;;;;;;;;;;;;;;;;5018313;28;19956;-26
2022/06/14 02:02:43;;;;;;;;;;;;;;;;;;5017899;28;20014;-26
2022/06/14 02:05:09;;;;;;;;;;;;;;;;;;5018718;28;20000;-26
2022/06/14 02:07:35;;;;;;;;;;;;;;;;;;5018078;28;19914;-25
2022/06/14 02:10:01;;;;;;;;;;;;;;;;;;5018072;28;20359;-26
2022/06/14 02:12:27;;;;;;;;;;;;;;;;;;5017052;28;20269;-25
2022/06/14 02:14:53;;;;;;;;;;;;;;;;;;5017933;28;19910;-25
2022/06/14 02:17:19;;;;;;;;;;;;;;;;;;5018240;28;19913;-25
2022/06/14 02:19:45;;;;;;;;;;;;;;;;;;5017877;28;20004;-25
2022/06/14 02:22:11;;;;;;;;;;;;;;;;;;5017947;28;20284;-26
2022/06/14 02:24:37;;;;;;;;;;;;;;;;;;5017732;28;20392;-26
2022/06/14 02:27:03;;;;;;;;;;;;;;;;;;5018043;28;19952;-26
2022/06/14 02:29:29;;;;;;;;;;;;;;;;;;5017208;28;19924;-26
2022/06/14 02:31:55;;;;;;;;;;;;;;;;;;5017609;28;19909;-26
2022/06/14 02:34:21;;;;;;;;;;;;;;;;;;5017609;28;20210;-25
2022/06/14 02:36:47;;;;;;;;;;;;;;;;;;5017800;28;19925;-27
2022/06/14 02:39:13;;;;;;;;;;;;;;;;;;5017736;28;19920;-26
2022/06/14 02:41:39;;;;;;;;;;;;;;;;;;5017386;28;20264;-25
2022/06/14 02:44:05;;;;;;;;;;;;;;;;;;5017368;28;19910;-25
2022/06/14 02:46:31;;;;;;;;;;;;;;;;;;5017883;28;20356;-26
2022/06/14 02:48:57;;;;;;;;;;;;;;;;;;5017331;28;20013;-26
2022/06/14 02:51:23;;;;;;;;;;;;;;;;;;5017518;28;19944;-26
2022/06/14 02:53:49;;;;;;;;;;;;;;;;;;5017152;28;19910;-25
2022/06/14 02:56:15;;;;;;;;;;;;;;;;;;5017771;28;19941;-26
2022/06/14 02:58:41;;;;;;;;;;;;;;;;;;5017106;28;19913;-26
2022/06/14 03:01:07;;;;;;;;;;;;;;;;;;5017085;28;19972;-25
2022/06/14 03:03:33;;;;;;;;;;;;;;;;;;5016880;28;20264;-25
2022/06/14 03:05:59;;;;;;;;;;;;;;;;;;5016967;28;19913;-25
2022/06/14 03:08:25;;;;;;;;;;;;;;;;;;5016966;28;19913;-26
2022/06/14 03:10:51;;;;;;;;;;;;;;;;;;5016950;28;19960;-26
2022/06/14 03:13:17;;;;;;;;;;;;;;;;;;5016858;28;20344;-26
2022/06/14 03:15:43;;;;;;;;;;;;;;;;;;5017461;28;19913;-26
2022/06/14 03:18:09;;;;;;;;;;;;;;;;;;5016749;28;19921;-26
2022/06/14 03:20:37;;;;;;;;;;;;;;;;;;5017312;28;19996;-26
2022/06/14 03:23:03;;;;;;;;;;;;;;;;;;5016562;28;19917;-27
2022/06/14 03:25:29;;;;;;;;;;;;;;;;;;5016644;28;20292;-26
2022/06/14 03:27:55;;;;;;;;;;;;;;;;;;5016587;28;19914;-25
2022/06/14 03:30:21;;;;;;;;;;;;;;;;;;5016516;28;19909;-26
2022/06/14 03:32:47;;;;;;;;;;;;;;;;;;5016377;28;19915;-26
2022/06/14 03:35:13;;;;;;;;;;;;;;;;;;5016734;28;19910;-26
2022/06/14 03:37:39;;;;;;;;;;;;;;;;;;5016649;28;19913;-26
2022/06/14 03:40:05;;;;;;;;;;;;;;;;;;5015947;28;20260;-26
2022/06/14 03:42:31;;;;;;;;;;;;;;;;;;5015076;28;19917;-26
2022/06/14 03:44:57;;;;;;;;;;;;;;;;;;5016288;28;19921;-26
2022/06/14 03:47:23;;;;;;;;;;;;;;;;;;5016610;28;20244;-26
2022/06/14 03:49:49;;;;;;;;;;;;;;;;;;5016221;28;19913;-25
2022/06/14 03:52:15;;;;;;;;;;;;;;;;;;5016438;28;19913;-25
2022/06/14 03:54:41;;;;;;;;;;;;;;;;;;5016121;28;19932;-25
2022/06/14 03:57:07;;;;;;;;;;;;;;;;;;5016290;28;19914;-25
2022/06/14 03:59:33;;;;;;;;;;;;;;;;;;5016256;28;19925;-25
2022/06/14 04:01:59;;;;;;;;;;;;;;;;;;5015797;28;19918;-25
2022/06/14 04:04:25;;;;;;;;;;;;;;;;;;5015768;28;20352;-25
2022/06/14 04:06:51;;;;;;;;;;;;;;;;;;5015703;28;19917;-25
2022/06/14 04:09:17;;;;;;;;;;;;;;;;;;5015492;28;19914;-25
2022/06/14 04:11:43;;;;;;;;;;;;;;;;;;5015554;28;19906;-25
2022/06/14 04:14:09;;;;;;;;;;;;;;;;;;5015858;28;19913;-25
2022/06/14 04:16:35;;;;;;;;;;;;;;;;;;5015431;28;19912;-25
2022/06/14 04:19:03;;;;;;;;;;;;;;;;;;5016103;28;19924;-25
2022/06/14 04:21:29;;;;;;;;;;;;;;;;;;5015427;28;20217;-25
2022/06/14 04:23:55;;;;;;;;;;;;;;;;;;5015674;28;19916;-25
2022/06/14 04:26:21;;;;;;;;;;;;;;;;;;5015674;28;19945;-25
2022/06/14 04:28:47;;;;;;;;;;;;;;;;;;5015449;28;19910;-25
2022/06/14 04:31:13;;;;;;;;;;;;;;;;;;5015524;28;20295;-25
2022/06/14 04:33:39;;;;;;;;;;;;;;;;;;5015230;28;20012;-25
2022/06/14 04:36:05;;;;;;;;;;;;;;;;;;5015333;28;20320;-25
2022/06/14 04:38:31;;;;;;;;;;;;;;;;;;5016243;28;19929;-25
2022/06/14 04:40:57;;;;;;;;;;;;;;;;;;5015173;28;19968;-25
2022/06/14 04:43:23;;;;;;;;;;;;;;;;;;5015078;28;19944;-25
2022/06/14 04:45:54;;;;;;;;;;;;;;;;;;5015211;28;20297;-25
2022/06/14 04:48:20;;;;;;;;;;;;;;;;;;5015468;28;20016;-26
2022/06/14 04:50:46;;;;;;;;;;;;;;;;;;5015253;28;20008;-25
2022/06/14 04:53:12;;;;;;;;;;;;;;;;;;5014516;28;20001;-25
2022/06/14 04:55:40;;;;;;;;;;;;;;;;;;5015853;28;19909;-25
2022/06/14 04:58:06;;;;;;;;;;;;;;;;;;5014108;28;19985;-26
2022/06/14 05:00:32;;;;;;;;;;;;;;;;;;5015279;28;19941;-25
2022/06/14 05:02:57;;;;;;;;;;;;;;;;;;5014584;28;19921;-25
2022/06/14 05:05:23;;;;;;;;;;;;;;;;;;5015036;28;20059;-25
2022/06/14 05:07:50;;;;;;;;;;;;;;;;;;5015552;28;20004;-25
2022/06/14 05:10:16;;;;;;;;;;;;;;;;;;5014983;28;19905;-25
2022/06/14 05:12:42;;;;;;;;;;;;;;;;;;5014905;28;19964;-32
2022/06/14 05:15:07;;;;;;;;;;;;;;;;;;5015175;28;19936;-25
2022/06/14 05:17:35;;;;;;;;;;;;;;;;;;5015105;28;20287;-25
2022/06/14 05:20:01;;;;;;;;;;;;;;;;;;5015168;28;19921;-25
2022/06/14 05:22:27;;;;;;;;;;;;;;;;;;5014838;28;19914;-25
2022/06/14 05:24:53;;;;;;;;;;;;;;;;;;5014688;28;19914;-25
2022/06/14 05:27:19;;;;;;;;;;;;;;;;;;5014762;28;19913;-25
2022/06/14 05:29:45;;;;;;;;;;;;;;;;;;5014706;28;20315;-25
2022/06/14 05:32:12;;;;;;;;;;;;;;;;;;5014544;28;19945;-26
2022/06/14 05:34:38;;;;;;;;;;;;;;;;;;5014690;28;19909;-25
2022/06/14 05:37:04;;;;;;;;;;;;;;;;;;5014575;28;20314;-25
2022/06/14 05:39:30;;;;;;;;;;;;;;;;;;5014629;28;19914;-25
2022/06/14 05:41:56;;;;;;;;;;;;;;;;;;5014691;28;20036;-25
2022/06/14 05:44:22;;;;;;;;;;;;;;;;;;5014508;28;19916;-25
2022/06/14 05:46:48;;;;;;;;;;;;;;;;;;5014857;28;20285;-25
2022/06/14 05:49:14;;;;;;;;;;;;;;;;;;5015040;28;19965;-25
2022/06/14 05:51:40;;;;;;;;;;;;;;;;;;5014745;28;19920;-25
2022/06/14 05:54:06;;;;;;;;;;;;;;;;;;5014637;28;19949;-25
2022/06/14 05:56:32;;;;;;;;;;;;;;;;;;5015326;28;19929;-25
2022/06/14 05:58:58;;;;;;;;;;;;;;;;;;5014142;28;20340;-25
2022/06/14 06:01:24;;;;;;;;;;;;;;;;;;5014207;28;20012;-25
2022/06/14 06:03:50;;;;;;;;;;;;;;;;;;5014738;28;20345;-25
2022/06/14 06:06:16;;;;;;;;;;;;;;;;;;5018314;28;19959;-25
2022/06/14 06:08:41;;;;;;;;;;;;;;;;;;5016621;28;19913;-25
2022/06/14 06:11:08;;;;;;;;;;;;;;;;;;5017799;28;19944;-25
2022/06/14 06:13:34;;;;;;;;;;;;;;;;;;5017763;28;19925;-28
2022/06/14 06:16:00;;;;;;;;;;;;;;;;;;5017809;28;19913;-26
2022/06/14 06:18:26;;;;;;;;;;;;;;;;;;5017808;28;19947;-25
2022/06/14 06:20:52;;;;;;;;;;;;;;;;;;5017765;28;20289;-25
2022/06/14 06:23:18;;;;;;;;;;;;;;;;;;5017672;28;19925;-25
2022/06/14 06:25:44;;;;;;;;;;;;;;;;;;5017728;28;20359;-25
2022/06/14 06:28:10;;;;;;;;;;;;;;;;;;5017522;28;19928;-25
2022/06/14 06:30:36;;;;;;;;;;;;;;;;;;5017604;28;19914;-25
2022/06/14 06:33:02;;;;;;;;;;;;;;;;;;5017865;28;20012;-25
2022/06/14 06:35:28;;;;;;;;;;;;;;;;;;5017341;28;19917;-25
2022/06/14 06:37:54;;;;;;;;;;;;;;;;;;5017609;28;20350;-25
2022/06/14 06:40:20;;;;;;;;;;;;;;;;;;5017607;28;19996;-25
2022/06/14 06:42:46;;;;;;;;;;;;;;;;;;5017339;28;19928;-25
2022/06/14 06:45:12;;;;;;;;;;;;;;;;;;5017756;28;19977;-25
2022/06/14 06:47:39;;;;;;;;;;;;;;;;;;5017248;28;19999;-25
2022/06/14 06:50:05;;;;;;;;;;;;;;;;;;5017005;28;19924;-25
2022/06/14 06:52:30;;;;;;;;;;;;;;;;;;5016964;28;19929;-25
2022/06/14 06:54:57;;;;;;;;;;;;;;;;;;5017017;28;19910;-25
2022/06/14 06:57:23;;;;;;;;;;;;;;;;;;5017788;28;19918;-25
2022/06/14 06:59:50;;;;;;;;;;;;;;;;;;5017116;28;19925;-24
2022/06/14 07:02:16;;;;;;;;;;;;;;;;;;5016683;28;20279;-26
2022/06/14 07:07:26;;;;;;;;;;;;;;;;;;5017182;28;19924;-25
2022/06/14 07:09:53;;;;;;;;;;;;;;;;;;5016853;28;19920;-25
2022/06/14 07:12:19;;;;;;;;;;;;;;;;;;5017143;28;20013;-24
2022/06/14 07:14:45;;;;;;;;;;;;;;;;;;5016478;28;19948;-25
2022/06/14 07:17:11;;;;;;;;;;;;;;;;;;5016808;28;20225;-25
2022/06/14 07:19:37;;;;;;;;;;;;;;;;;;5016856;28;19925;-24
2022/06/14 07:22:03;;;;;;;;;;;;;;;;;;5016500;28;19983;-26
2022/06/14 07:24:29;;;;;;;;;;;;;;;;;;5017096;28;19988;-25
2022/06/14 07:26:55;;;;;;;;;;;;;;;;;;5017020;28;19925;-26
2022/06/14 07:29:21;;;;;;;;;;;;;;;;;;5016541;28;19913;-26
2022/06/14 07:31:47;;;;;;;;;;;;;;;;;;5016834;28;19921;-25
2022/06/14 07:34:13;;;;;;;;;;;;;;;;;;5015450;28;19968;-26
2022/06/14 07:36:39;;;;;;;;;;;;;;;;;;5016233;28;20341;-25
2022/06/14 07:39:06;;;;;;;;;;;;;;;;;;5016796;28;20382;-25
2022/06/14 07:41:32;;;;;;;;;;;;;;;;;;5016138;28;19917;-26
2022/06/14 07:43:58;;;;;;;;;;;;;;;;;;5016114;28;19916;-25
2022/06/14 07:46:24;;;;;;;;;;;;;;;;;;5016185;28;20008;-24
2022/06/14 07:48:50;;;;;;;;;;;;;;;;;;5015018;28;19953;-25
2022/06/14 07:51:16;;;;;;;;;;;;;;;;;;5015983;28;20087;-26
2022/06/14 07:53:42;;;;;;;;;;;;;;;;;;5015914;28;19956;-26
2022/06/14 07:56:09;;;;;;;;;;;;;;;;;;5016061;28;19925;-25
2022/06/14 07:58:34;;;;;;;;;;;;;;;;;;5015932;28;19914;-25
2022/06/14 08:01:10;;;;;;;;;;;;;;;;;;5015867;28;19936;-25
2022/06/14 08:03:37;;;;;;;;;;;;;;;;;;5014703;28;19961;-25
2022/06/14 08:06:03;;;;;;;;;;;;;;;;;;5015767;28;19920;-26
2022/06/14 08:08:29;;;;;;;;;;;;;;;;;;5015765;28;19913;-25
2022/06/14 08:10:55;;;;;;;;;;;;;;;;;;5016014;28;20021;-25
2022/06/14 08:13:21;;;;;;;;;;;;;;;;;;5015579;28;19984;-25
2022/06/14 08:15:47;;;;;;;;;;;;;;;;;;5015543;28;19909;-26
2022/06/14 08:18:13;;;;;;;;;;;;;;;;;;5015573;28;19913;-25
2022/06/14 08:20:39;;;;;;;;;;;;;;;;;;5015784;28;19909;-25
2022/06/14 08:23:05;;;;;;;;;;;;;;;;;;5014352;28;20379;-25
2022/06/14 08:25:31;;;;;;;;;;;;;;;;;;5016121;28;20354;-25
2022/06/14 08:27:57;;;;;;;;;;;;;;;;;;5014782;28;20352;-25
2022/06/14 08:30:23;;;;;;;;;;;;;;;;;;5016013;28;19909;-25
2022/06/14 08:32:49;;;;;;;;;;;;;;;;;;5015369;28;19913;-26
2022/06/14 08:35:15;;;;;;;;;;;;;;;;;;5015390;28;20255;-26
2022/06/14 08:37:42;;;;;;;;;;;;;;;;;;5015217;28;19918;-25
2022/06/14 08:40:09;;;;;;;;;;;;;;;;;;5015379;28;19926;-26
2022/06/14 08:42:35;;;;;;;;;;;;;;;;;;5015464;28;19921;-25
2022/06/14 08:45:01;;;;;;;;;;;;;;;;;;5015386;28;20426;-26
2022/06/14 08:47:27;;;;;;;;;;;;;;;;;;5015282;28;19914;-25
2022/06/14 08:49:53;;;;;;;;;;;;;;;;;;5015210;28;19909;-26
2022/06/14 08:52:19;;;;;;;;;;;;;;;;;;5014994;28;19913;-25
2022/06/14 08:54:45;;;;;;;;;;;;;;;;;;5015018;28;19914;-25
2022/06/14 08:57:11;;;;;;;;;;;;;;;;;;5014981;28;19917;-26
2022/06/14 08:59:37;;;;;;;;;;;;;;;;;;5015079;28;19917;-25
2022/06/14 09:02:03;;;;;;;;;;;;;;;;;;5015162;28;19922;-26
2022/06/14 09:04:29;;;;;;;;;;;;;;;;;;5014718;28;20272;-25
2022/06/14 09:06:55;;;;;;;;;;;;;;;;;;5015634;28;20299;-26
2022/06/14 09:09:21;;;;;;;;;;;;;;;;;;5015159;28;19976;-25
2022/06/14 09:11:47;;;;;;;;;;;;;;;;;;5015005;28;19924;-25
2022/06/14 09:14:13;;;;;;;;;;;;;;;;;;5015113;28;19910;-25
2022/06/14 09:16:39;;;;;;;;;;;;;;;;;;5014770;28;19920;-26
2022/06/14 09:19:05;;;;;;;;;;;;;;;;;;5014812;28;19924;-26
2022/06/14 09:21:31;;;;;;;;;;;;;;;;;;5014667;28;19917;-26
2022/06/14 09:23:57;;;;;;;;;;;;;;;;;;5014695;28;20257;-26
2022/06/14 09:26:23;;;;;;;;;;;;;;;;;;5014661;28;20000;-26
2022/06/14 09:28:49;;;;;;;;;;;;;;;;;;5013596;28;20348;-21
2022/06/14 09:31:16;;;;;;;;;;;;;;;;;;5014801;28;19914;-22
2022/06/14 09:33:42;;;;;;;;;;;;;;;;;;5014659;28;19920;-22
2022/06/14 09:36:08;;;;;;;;;;;;;;;;;;5014653;28;19914;-24
2022/06/14 09:38:34;;;;;;;;;;;;;;;;;;5016777;28;19914;-22
2022/06/14 09:41:00;;;;;;;;;;;;;;;;;;5017661;28;19917;-22
2022/06/14 09:43:26;;;;;;;;;;;;;;;;;;5018642;28;20348;-22
2022/06/14 09:45:52;;;;;;;;;;;;;;;;;;5018779;28;19925;-22
2022/06/14 09:48:19;;;;;;;;;;;;;;;;;;5018323;28;19909;-21
2022/06/14 09:50:45;;;;;;;;;;;;;;;;;;5018813;28;19913;-23
2022/06/14 09:53:11;;;;;;;;;;;;;;;;;;5018446;28;19917;-23
2022/06/14 09:55:37;;;;;;;;;;;;;;;;;;5018711;28;19918;-21
2022/06/14 09:58:03;;;;;;;;;;;;;;;;;;5018116;28;19921;-21
2022/06/14 10:00:29;;;;;;;;;;;;;;;;;;5018106;28;19909;-22
2022/06/14 10:02:55;;;;;;;;;;;;;;;;;;5017743;28;20020;-27
2022/06/14 10:05:21;;;;;;;;;;;;;;;;;;5017093;28;19979;-22
2022/06/14 10:07:47;;;;;;;;;;;;;;;;;;5017045;28;19924;-22
2022/06/14 10:10:13;;;;;;;;;;;;;;;;;;5018282;28;20000;-22
2022/06/14 10:12:39;;;;;;;;;;;;;;;;;;5017823;28;19917;-22
2022/06/14 10:15:05;;;;;;;;;;;;;;;;;;5016921;28;19905;-22
2022/06/14 10:17:31;;;;;;;;;;;;;;;;;;5017839;28;19935;-22
2022/06/14 10:19:57;;;;;;;;;;;;;;;;;;5017882;28;20380;-22
2022/06/14 10:22:23;;;;;;;;;;;;;;;;;;5017667;28;20419;-21
2022/06/14 10:24:49;;;;;;;;;;;;;;;;;;5017893;28;19918;-21
2022/06/14 10:30:00;;;;;;;;;;;;;;;;;;5017742;28;19975;-26
2022/06/14 10:32:26;;;;;;;;;;;;;;;;;;5017711;28;20280;-23
2022/06/14 10:34:52;;;;;;;;;;;;;;;;;;5017815;28;19925;-24
2022/06/14 10:37:18;;;;;;;;;;;;;;;;;;5017598;28;20248;-21
2022/06/14 10:39:44;;;;;;;;;;;;;;;;;;5017724;28;20288;-22
2022/06/14 10:42:10;;;;;;;;;;;;;;;;;;5017383;28;19913;-23
2022/06/14 10:44:37;;;;;;;;;;;;;;;;;;5017335;28;19914;-22
2022/06/14 10:47:03;;;;;;;;;;;;;;;;;;5017732;28;20323;-22
2022/06/14 10:49:29;;;;;;;;;;;;;;;;;;5016945;28;20264;-23
2022/06/14 10:51:55;;;;;;;;;;;;;;;;;;5017873;28;20032;-22
2022/06/14 10:54:24;;;;;;;;;;;;;;;;;;5017060;28;19913;-22
2022/06/14 10:56:50;;;;;;;;;;;;;;;;;;5017345;28;19975;-22
2022/06/14 10:59:16;;;;;;;;;;;;;;;;;;5017040;28;19918;-22
2022/06/14 11:01:42;;;;;;;;;;;;;;;;;;5016951;28;19917;-22
2022/06/14 11:04:08;;;;;;;;;;;;;;;;;;5016797;28;19968;-21
2022/06/14 11:06:34;;;;;;;;;;;;;;;;;;5016942;28;19996;-23
2022/06/14 11:09:00;;;;;;;;;;;;;;;;;;5017552;28;19919;-22
2022/06/14 11:11:26;;;;;;;;;;;;;;;;;;5016972;28;19910;-22
2022/06/14 11:13:52;;;;;;;;;;;;;;;;;;5016800;28;19963;-22
2022/06/14 11:16:18;;;;;;;;;;;;;;;;;;5016384;28;20350;-23
2022/06/14 11:18:44;;;;;;;;;;;;;;;;;;5017023;28;19941;-22
2022/06/14 11:21:10;;;;;;;;;;;;;;;;;;5015515;28;19909;-22
2022/06/14 11:23:36;;;;;;;;;;;;;;;;;;5017103;28;19996;-21
2022/06/14 11:26:02;;;;;;;;;;;;;;;;;;5017166;28;19910;-22
2022/06/14 11:28:28;;;;;;;;;;;;;;;;;;5016970;28;20252;-22
2022/06/14 11:30:54;;;;;;;;;;;;;;;;;;5015385;28;20256;-22
2022/06/14 11:33:20;;;;;;;;;;;;;;;;;;5016339;28;20324;-23
2022/06/14 11:35:47;;;;;;;;;;;;;;;;;;5016558;28;20238;-22
2022/06/14 11:38:13;;;;;;;;;;;;;;;;;;5016257;28;19921;-22
2022/06/14 11:40:41;;;;;;;;;;;;;;;;;;5015199;28;19968;-22
2022/06/14 11:43:07;;;;;;;;;;;;;;;;;;5016228;28;19971;-21
2022/06/14 11:45:33;;;;;;;;;;;;;;;;;;5016299;28;19917;-22
2022/06/14 11:47:59;;;;;;;;;;;;;;;;;;5016223;28;19913;-23
2022/06/14 11:50:25;;;;;;;;;;;;;;;;;;5015318;28;19918;-22
2022/06/14 11:52:51;;;;;;;;;;;;;;;;;;5016634;28;19933;-22
2022/06/14 11:55:17;;;;;;;;;;;;;;;;;;5016193;28;19909;-22
2022/06/14 11:57:43;;;;;;;;;;;;;;;;;;5016334;28;19936;-22
2022/06/14 12:00:09;;;;;;;;;;;;;;;;;;5016061;28;19910;-24
2022/06/14 12:02:36;;;;;;;;;;;;;;;;;;5014926;28;19944;-22
2022/06/14 12:05:02;;;;;;;;;;;;;;;;;;5016265;28;19913;-21
2022/06/14 12:07:28;;;;;;;;;;;;;;;;;;5015698;28;19920;-21
2022/06/14 12:09:54;;;;;;;;;;;;;;;;;;5015981;28;19910;-21
2022/06/14 12:12:20;;;;;;;;;;;;;;;;;;5015704;28;19913;-22
2022/06/14 12:14:46;;;;;;;;;;;;;;;;;;5015718;28;19960;-21
2022/06/14 12:17:12;;;;;;;;;;;;;;;;;;5014672;28;19920;-23
2022/06/14 12:19:38;;;;;;;;;;;;;;;;;;5014668;28;20016;-22
2022/06/14 12:22:26;;;;;;;;;;;;;;;;;;5015627;28;19917;-21
2022/06/14 12:27:36;;;;;;;;;;;;;;;;;;5015408;28;19920;-22
2022/06/14 12:30:03;;;;;;;;;;;;;;;;;;5014511;28;19909;-22
2022/06/14 12:32:29;;;;;;;;;;;;;;;;;;5014474;28;19924;-22
2022/06/14 12:34:55;;;;;;;;;;;;;;;;;;5014543;28;20290;-23
2022/06/14 12:37:22;;;;;;;;;;;;;;;;;;5014445;28;19917;-22
2022/06/14 12:39:48;;;;;;;;;;;;;;;;;;5015603;28;19924;-22
2022/06/14 12:42:14;;;;;;;;;;;;;;;;;;5015062;28;19918;-22
2022/06/14 12:44:40;;;;;;;;;;;;;;;;;;5015521;28;19924;-21
2022/06/14 12:47:06;;;;;;;;;;;;;;;;;;5015264;28;19945;-21
2022/06/14 12:49:32;;;;;;;;;;;;;;;;;;5014965;28;19914;-22
2022/06/14 12:51:58;;;;;;;;;;;;;;;;;;5014851;28;19971;-22
2022/06/14 12:54:25;;;;;;;;;;;;;;;;;;5014969;28;19914;-21
2022/06/14 12:56:51;;;;;;;;;;;;;;;;;;5015155;28;19949;-22
2022/06/14 12:59:17;;;;;;;;;;;;;;;;;;5013983;28;19918;-22
2022/06/14 13:01:43;;;;;;;;;;;;;;;;;;5014933;28;19917;-23
2022/06/14 13:04:09;;;;;;;;;;;;;;;;;;5014710;28;19949;-22
2022/06/14 13:06:35;;;;;;;;;;;;;;;;;;5014883;28;20337;-23
2022/06/14 13:09:01;;;;;;;;;;;;;;;;;;5015088;28;19957;-21
2022/06/14 13:11:27;;;;;;;;;;;;;;;;;;5014991;28;19905;-23
2022/06/14 13:13:53;;;;;;;;;;;;;;;;;;5017683;28;20024;-22
2022/06/14 13:16:19;;;;;;;;;;;;;;;;;;5018850;28;19910;-22
2022/06/14 13:18:46;;;;;;;;;;;;;;;;;;5018897;28;20000;-22
2022/06/14 13:21:12;;;;;;;;;;;;;;;;;;5019233;28;19906;-23
2022/06/14 13:23:38;;;;;;;;;;;;;;;;;;5018864;28;19913;-22
2022/06/14 13:26:03;;;;;;;;;;;;;;;;;;5018711;28;19972;-23
2022/06/14 13:28:30;;;;;;;;;;;;;;;;;;5018534;28;20313;-24
2022/06/14 13:30:56;;;;;;;;;;;;;;;;;;5018591;28;20003;-22
2022/06/14 13:33:23;;;;;;;;;;;;;;;;;;5018477;28;19913;-22
2022/06/14 13:35:52;;;;;;;;;;;;;;;;;;5018607;28;19909;-24
2022/06/14 13:38:18;;;;;;;;;;;;;;;;;;5018433;28;19913;-21
2022/06/14 13:40:44;;;;;;;;;;;;;;;;;;5018468;28;20287;-20
2022/06/14 13:43:10;;;;;;;;;;;;;;;;;;5018196;28;20306;-25
2022/06/14 13:45:36;;;;;;;;;;;;;;;;;;5018384;28;20003;-21
2022/06/14 13:48:02;;;;;;;;;;;;;;;;;;5018849;28;19924;-22
2022/06/14 13:50:28;;;;;;;;;;;;;;;;;;5018530;28;20280;-22
2022/06/14 13:52:54;;;;;;;;;;;;;;;;;;5017332;28;19914;-24
2022/06/14 13:55:20;;;;;;;;;;;;;;;;;;5018994;28;19929;-22
2022/06/14 13:57:48;;;;;;;;;;;;;;;;;;5018211;28;19917;-22
2022/06/14 14:00:14;;;;;;;;;;;;;;;;;;5018206;28;19931;-22
2022/06/14 14:02:40;;;;;;;;;;;;;;;;;;5018034;28;19926;-20
2022/06/14 14:05:06;;;;;;;;;;;;;;;;;;5017987;28;19920;-23
2022/06/14 14:07:32;;;;;;;;;;;;;;;;;;5016918;28;19905;-25
2022/06/14 14:09:58;;;;;;;;;;;;;;;;;;5018095;28;19914;-24
2022/06/14 14:12:24;;;;;;;;;;;;;;;;;;5018050;28;20308;-21
2022/06/14 14:14:51;;;;;;;;;;;;;;;;;;5017058;28;20254;-21
2022/06/14 14:17:17;;;;;;;;;;;;;;;;;;5017962;28;20091;-22
2022/06/14 14:19:43;;;;;;;;;;;;;;;;;;5017968;28;20016;-22
2022/06/14 14:22:09;;;;;;;;;;;;;;;;;;5017877;28;20269;-23
2022/06/14 14:24:35;;;;;;;;;;;;;;;;;;5016727;28;19913;-22
2022/06/14 14:27:01;;;;;;;;;;;;;;;;;;5016744;28;19924;-22
2022/06/14 14:29:27;;;;;;;;;;;;;;;;;;5017669;28;19964;-21
2022/06/14 14:31:54;;;;;;;;;;;;;;;;;;5017760;28;20296;-22
2022/06/14 14:34:20;;;;;;;;;;;;;;;;;;5017864;28;19913;-22
2022/06/14 14:36:46;;;;;;;;;;;;;;;;;;5017650;28;19910;-22
2022/06/14 14:39:12;;;;;;;;;;;;;;;;;;5017414;28;20303;-22
2022/06/14 14:41:41;;;;;;;;;;;;;;;;;;5017768;28;19917;-22
2022/06/14 14:44:07;;;;;;;;;;;;;;;;;;5016239;28;20265;-22
2022/06/14 14:46:33;;;;;;;;;;;;;;;;;;5017886;28;19924;-23
2022/06/14 14:49:00;;;;;;;;;;;;;;;;;;5018207;28;20325;-22
2022/06/14 14:51:26;;;;;;;;;;;;;;;;;;5017673;28;19913;-22
2022/06/14 14:53:52;;;;;;;;;;;;;;;;;;5017243;28;19913;-24
2022/06/14 14:56:18;;;;;;;;;;;;;;;;;;5017509;28;20007;-25
2022/06/14 14:58:44;;;;;;;;;;;;;;;;;;5017688;28;19913;-23
2022/06/14 15:06:40;;;;;;;;;;;;;;;;;;5017055;28;20099;-26
2022/06/14 15:09:06;;;;;;;;;;;;;;;;;;5016947;28;19913;-22
2022/06/14 15:11:32;;;;;;;;;;;;;;;;;;5017549;28;19909;-22
2022/06/14 15:13:58;;;;;;;;;;;;;;;;;;5016856;28;20301;-23
2022/06/14 15:16:27;;;;;;;;;;;;;;;;;;5017221;28;19914;-22
2022/06/14 15:21:38;;;;;;;;;;;;;;;;;;5016908;28;20351;-22
2022/06/14 15:24:04;;;;;;;;;;;;;;;;;;5016692;28;20004;-22
2022/06/14 15:26:30;;;;;;;;;;;;;;;;;;5015881;28;19945;-22
2022/06/14 15:28:56;;;;;;;;;;;;;;;;;;5016696;28;19913;-22
2022/06/14 15:31:22;;;;;;;;;;;;;;;;;;5016598;28;19979;-22
2022/06/14 15:33:48;;;;;;;;;;;;;;;;;;5016550;28;19980;-22
2022/06/14 15:36:14;;;;;;;;;;;;;;;;;;5016888;28;20376;-24
2022/06/14 15:38:40;;;;;;;;;;;;;;;;;;5016463;28;20016;-24
2022/06/14 15:43:50;;;;;;;;;;;;;;;;;;5016396;28;19928;-22
2022/06/14 15:46:16;;;;;;;;;;;;;;;;;;5016253;28;19996;-22
2022/06/14 15:48:43;;;;;;;;;;;;;;;;;;5016218;28;20297;-22
2022/06/14 15:51:09;;;;;;;;;;;;;;;;;;5016203;28;19913;-22
2022/06/14 15:53:35;;;;;;;;;;;;;;;;;;5015174;28;20068;-22
2022/06/14 15:56:01;;;;;;;;;;;;;;;;;;5016190;28;20342;-22
2022/06/14 15:58:27;;;;;;;;;;;;;;;;;;5016106;28;19953;-23
2022/06/14 16:00:53;;;;;;;;;;;;;;;;;;5016221;28;20230;-23
2022/06/14 16:03:19;;;;;;;;;;;;;;;;;;5015705;28;19922;-24
2022/06/14 16:05:45;;;;;;;;;;;;;;;;;;5015990;28;20229;-23
2022/06/14 16:08:11;;;;;;;;;;;;;;;;;;5015901;28;19917;-22
2022/06/14 16:10:37;;;;;;;;;;;;;;;;;;5014966;28;19906;-23
2022/06/14 16:13:03;;;;;;;;;;;;;;;;;;5014831;28;19913;-23
2022/06/14 16:15:29;;;;;;;;;;;;;;;;;;5014807;28;19916;-24
2022/06/14 16:17:56;;;;;;;;;;;;;;;;;;5015976;28;19913;-22
2022/06/14 16:20:22;;;;;;;;;;;;;;;;;;5014600;28;19916;-22
2022/06/14 16:22:48;;;;;;;;;;;;;;;;;;5014597;28;19913;-22
2022/06/14 16:25:14;;;;;;;;;;;;;;;;;;5016248;28;19914;-23
2022/06/14 16:27:40;;;;;;;;;;;;;;;;;;5015817;28;19940;-22
2022/06/14 16:30:06;;;;;;;;;;;;;;;;;;5015710;28;19910;-23
2022/06/14 16:32:32;;;;;;;;;;;;;;;;;;5015519;28;19914;-22
2022/06/14 16:34:58;;;;;;;;;;;;;;;;;;5014635;28;20001;-23
2022/06/14 16:37:24;;;;;;;;;;;;;;;;;;5015497;28;19957;-23
2022/06/14 16:39:50;;;;;;;;;;;;;;;;;;5015577;28;19920;-23
2022/06/14 16:42:16;;;;;;;;;;;;;;;;;;5015826;28;19957;-23
2022/06/14 16:44:43;;;;;;;;;;;;;;;;;;5014397;28;20394;-22
2022/06/14 16:47:09;;;;;;;;;;;;;;;;;;5014922;28;20363;-23
2022/06/14 16:49:35;;;;;;;;;;;;;;;;;;5015465;28;19910;-23
2022/06/14 16:52:01;;;;;;;;;;;;;;;;;;5015427;28;19917;-23
2022/06/14 16:54:27;;;;;;;;;;;;;;;;;;5015402;28;19963;-23
2022/06/14 16:56:54;;;;;;;;;;;;;;;;;;5015407;28;19918;-22
2022/06/14 16:59:20;;;;;;;;;;;;;;;;;;5015370;28;20000;-23
2022/06/14 17:01:46;;;;;;;;;;;;;;;;;;5015232;28;20063;-22